^^
Saratoga-Weather Station Historical Data
Daily Summary for July 8, 2021 Units:  Both    English   Metric
Daily Weekly Monthly Yearly Custom
  High: Low: Average:
Temperature: 44.4 °F /  6.9 °C 39.9 °F /  4.4 °C 42.8 °F /  6 °C
Dew Point: 42.3 °F /  5.7 °C 37.6 °F /  3.1 °C 40.3 °F /  4.6 °C
Humidity: 95% 87% 91%
Wind Speed: 6.9mph /  11.1km/h - 1.6mph /  2.6km/h
Wind Gust: 16mph /  25.7km/h - -
Wind- - SW
Pressure: 29.5 in /  998.6 hPa 29.4 in /  996.3 hPa -
Precipitation: 0.01 in /  0.2 mm    
Historical Graphs
 
 
Tabular Data for July 8, 2021
Time Temperature Dew Point Pressure Wind Wind Speed Wind Gust Humidity Rainfall Rate (Hourly) solar
00:03 39.9 °F /  4.4 °C 38.3 °F /  3.5 °C 29.4in /  996.6hPa ENE 0.9mph /  1.4km/h 7mph /  11.3km/h 94% 0.03in /  0.8mm 0 W/m2
00:08 40.3 °F /  4.6 °C 38.7 °F /  3.7 °C 29.4in /  996.6hPa ENE 0.9mph /  1.4km/h 4mph /  6.4km/h 94% 0.04in /  1.0mm 0 W/m2
00:13 40.5 °F /  4.7 °C 39.2 °F /  4 °C 29.4in /  996.6hPa East 2mph /  3.2km/h 3mph /  4.8km/h 95% 0.04in /  1.0mm 0 W/m2
00:18 40.6 °F /  4.8 °C 39.4 °F /  4.1 °C 29.4in /  996.3hPa ENE 2mph /  3.2km/h 16mph /  25.7km/h 95% 0.03in /  0.8mm 0 W/m2
00:23 41.2 °F /  5.1 °C 39.9 °F /  4.4 °C 29.4in /  996.3hPa East 6.9mph /  11.1km/h 7mph /  11.3km/h 95% 0.02in /  0.5mm 0 W/m2
00:28 41.5 °F /  5.3 °C 40.3 °F /  4.6 °C 29.4in /  996.3hPa North 2mph /  3.2km/h 16mph /  25.7km/h 95% 0.02in /  0.5mm 0 W/m2
00:33 42.1 °F /  5.6 °C 40.8 °F /  4.9 °C 29.4in /  996.3hPa NNW 2.9mph /  4.7km/h 7mph /  11.3km/h 95% 0.02in /  0.5mm 0 W/m2
00:38 42.4 °F /  5.8 °C 41.2 °F /  5.1 °C 29.4in /  996.3hPa NE 2mph /  3.2km/h 8mph /  12.9km/h 95% 0.02in /  0.5mm 0 W/m2
00:43 42.6 °F /  5.9 °C 41 °F /  5 °C 29.4in /  996.3hPa ENE 4mph /  6.4km/h 10mph /  16.1km/h 94% 0.02in /  0.5mm 0 W/m2
00:48 43 °F /  6.1 °C 41.4 °F /  5.2 °C 29.4in /  996.3hPa NW 0.9mph /  1.4km/h 5mph /  8km/h 94% 0.02in /  0.5mm 0 W/m2
00:53 43.2 °F /  6.2 °C 41.5 °F /  5.3 °C 29.4in /  996.3hPa WNW 2mph /  3.2km/h 8mph /  12.9km/h 94% 0.01in /  0.2mm 0 W/m2
00:58 43.3 °F /  6.3 °C 41.5 °F /  5.3 °C 29.4in /  996.6hPa NW 0.9mph /  1.4km/h 4mph /  6.4km/h 93% 0.01in /  0.2mm 0 W/m2
01:03 43.5 °F /  6.4 °C 41.7 °F /  5.4 °C 29.4in /  996.6hPa WNW 0.9mph /  1.4km/h 5mph /  8km/h 93% 0.01in /  0.2mm 0 W/m2
01:08 43.5 °F /  6.4 °C 41.7 °F /  5.4 °C 29.4in /  996.6hPa NNE 2.9mph /  4.7km/h 5mph /  8km/h 93% 0in /  0.0mm 0 W/m2
01:13 43.9 °F /  6.6 °C 41.9 °F /  5.5 °C 29.4in /  996.6hPa South 6.9mph /  11.1km/h 7mph /  11.3km/h 93% 0in /  0.0mm 0 W/m2
01:18 44.1 °F /  6.7 °C 41.9 °F /  5.5 °C 29.4in /  997.0hPa NNW 2.9mph /  4.7km/h 8mph /  12.9km/h 92% 0in /  0.0mm 0 W/m2
01:23 44.1 °F /  6.7 °C 41.9 °F /  5.5 °C 29.4in /  996.6hPa NNE 4mph /  6.4km/h 5mph /  8km/h 92% 0in /  0.0mm 0 W/m2
01:28 44.1 °F /  6.7 °C 41.9 °F /  5.5 °C 29.4in /  996.6hPa NW 2mph /  3.2km/h 9mph /  14.5km/h 92% 0in /  0.0mm 0 W/m2
01:33 44.1 °F /  6.7 °C 41.9 °F /  5.5 °C 29.4in /  996.6hPa SW 0.9mph /  1.4km/h 9mph /  14.5km/h 92% 0in /  0.0mm 0 W/m2
01:38 44.1 °F /  6.7 °C 41.9 °F /  5.5 °C 29.4in /  996.3hPa NNW 0.9mph /  1.4km/h 5mph /  8km/h 92% 0in /  0.0mm 0 W/m2
01:43 43.9 °F /  6.6 °C 41.7 °F /  5.4 °C 29.4in /  996.3hPa NW 2mph /  3.2km/h 9mph /  14.5km/h 92% 0in /  0.0mm 0 W/m2
01:48 43.9 °F /  6.6 °C 41.7 °F /  5.4 °C 29.4in /  996.3hPa NE 0.9mph /  1.4km/h 2mph /  3.2km/h 92% 0in /  0.0mm 0 W/m2
01:53 43.9 °F /  6.6 °C 41.7 °F /  5.4 °C 29.4in /  996.6hPa North 2mph /  3.2km/h 3mph /  4.8km/h 92% 0in /  0.0mm 0 W/m2
01:58 43.7 °F /  6.5 °C 41.5 °F /  5.3 °C 29.4in /  996.6hPa Calm   5mph /  8km/h 92% 0in /  0.0mm 0 W/m2
02:03 43.9 °F /  6.6 °C 41.7 °F /  5.4 °C 29.4in /  996.6hPa North 4mph /  6.4km/h 7mph /  11.3km/h 92% 0in /  0.0mm 0 W/m2
02:08 43.9 °F /  6.6 °C 41.7 °F /  5.4 °C 29.4in /  996.6hPa WNW 2.9mph /  4.7km/h 4mph /  6.4km/h 92% 0in /  0.0mm 0 W/m2
02:13 43.9 °F /  6.6 °C 41.7 °F /  5.4 °C 29.4in /  996.6hPa NNW 2.9mph /  4.7km/h 3mph /  4.8km/h 92% 0in /  0.0mm 0 W/m2
02:18 43.9 °F /  6.6 °C 41.7 °F /  5.4 °C 29.4in /  996.6hPa NNW 0.9mph /  1.4km/h 3mph /  4.8km/h 92% 0in /  0.0mm 0 W/m2
02:23 43.9 °F /  6.6 °C 41.7 °F /  5.4 °C 29.4in /  996.6hPa Calm   2mph /  3.2km/h 92% 0in /  0.0mm 0 W/m2
02:28 43.9 °F /  6.6 °C 41.7 °F /  5.4 °C 29.4in /  996.6hPa NE 0.9mph /  1.4km/h 2mph /  3.2km/h 92% 0in /  0.0mm 0 W/m2
02:33 43.9 °F /  6.6 °C 41.7 °F /  5.4 °C 29.4in /  997.0hPa NNE 0.9mph /  1.4km/h 5mph /  8km/h 92% 0in /  0.0mm 0 W/m2
02:38 44.1 °F /  6.7 °C 42.1 °F /  5.6 °C 29.4in /  997.0hPa NE 2mph /  3.2km/h 7mph /  11.3km/h 93% 0in /  0.0mm 0 W/m2
02:43 44.1 °F /  6.7 °C 42.1 °F /  5.6 °C 29.4in /  997.0hPa North 2mph /  3.2km/h 3mph /  4.8km/h 93% 0in /  0.0mm 0 W/m2
02:48 44.1 °F /  6.7 °C 42.1 °F /  5.6 °C 29.4in /  997.0hPa North 2mph /  3.2km/h 5mph /  8km/h 93% 0in /  0.0mm 0 W/m2
02:53 44.1 °F /  6.7 °C 42.1 °F /  5.6 °C 29.4in /  997.0hPa North 2.9mph /  4.7km/h 4mph /  6.4km/h 93% 0in /  0.0mm 0 W/m2
02:58 44.1 °F /  6.7 °C 42.1 °F /  5.6 °C 29.4in /  997.0hPa Calm   5mph /  8km/h 93% 0in /  0.0mm 0 W/m2
03:03 44.1 °F /  6.7 °C 42.1 °F /  5.6 °C 29.4in /  997.0hPa NW 2.9mph /  4.7km/h 3mph /  4.8km/h 93% 0in /  0.0mm 0 W/m2
03:08 44.2 °F /  6.8 °C 42.3 °F /  5.7 °C 29.4in /  997.0hPa NNE 2mph /  3.2km/h 4mph /  6.4km/h 93% 0in /  0.0mm 0 W/m2
03:13 44.2 °F /  6.8 °C 42.3 °F /  5.7 °C 29.4in /  997.0hPa West 0.9mph /  1.4km/h 3mph /  4.8km/h 93% 0in /  0.0mm 0 W/m2
03:18 44.4 °F /  6.9 °C 42.3 °F /  5.7 °C 29.4in /  997.0hPa NNE 0.9mph /  1.4km/h 4mph /  6.4km/h 92% 0in /  0.0mm 0 W/m2
03:23 44.4 °F /  6.9 °C 42.3 °F /  5.7 °C 29.4in /  997.0hPa ESE 2.9mph /  4.7km/h 4mph /  6.4km/h 92% 0in /  0.0mm 0 W/m2
03:28 44.4 °F /  6.9 °C 42.3 °F /  5.7 °C 29.4in /  997.0hPa ENE 2mph /  3.2km/h 3mph /  4.8km/h 92% 0in /  0.0mm 0 W/m2
03:33 44.4 °F /  6.9 °C 42.3 °F /  5.7 °C 29.4in /  997.0hPa North 2.9mph /  4.7km/h 6mph /  9.7km/h 92% 0in /  0.0mm 0 W/m2
03:38 44.4 °F /  6.9 °C 42.3 °F /  5.7 °C 29.4in /  997.0hPa NW 2mph /  3.2km/h 3mph /  4.8km/h 92% 0in /  0.0mm 0 W/m2
03:43 44.4 °F /  6.9 °C 42.3 °F /  5.7 °C 29.4in /  997.0hPa East 2mph /  3.2km/h 4mph /  6.4km/h 92% 0in /  0.0mm 0 W/m2
03:48 44.4 °F /  6.9 °C 42.3 °F /  5.7 °C 29.4in /  997.0hPa ENE 2mph /  3.2km/h 4mph /  6.4km/h 92% 0in /  0.0mm 0 W/m2
03:53 44.4 °F /  6.9 °C 42.3 °F /  5.7 °C 29.4in /  997.0hPa WNW 0.9mph /  1.4km/h 7mph /  11.3km/h 92% 0in /  0.0mm 0 W/m2
03:58 44.4 °F /  6.9 °C 42.3 °F /  5.7 °C 29.4in /  997.0hPa WNW 0.9mph /  1.4km/h 2mph /  3.2km/h 92% 0in /  0.0mm 0 W/m2
04:03 44.4 °F /  6.9 °C 42.3 °F /  5.7 °C 29.4in /  997.0hPa WNW 4mph /  6.4km/h 6mph /  9.7km/h 92% 0in /  0.0mm 0 W/m2
04:08 44.4 °F /  6.9 °C 42.3 °F /  5.7 °C 29.4in /  997.0hPa West 2mph /  3.2km/h 4mph /  6.4km/h 92% 0in /  0.0mm 0 W/m2
04:13 44.2 °F /  6.8 °C 42.1 °F /  5.6 °C 29.5in /  997.3hPa Calm   3mph /  4.8km/h 92% 0in /  0.0mm 0 W/m2
04:18 44.2 °F /  6.8 °C 42.1 °F /  5.6 °C 29.5in /  997.3hPa NNE 2.9mph /  4.7km/h 5mph /  8km/h 92% 0in /  0.0mm 0 W/m2
04:23 44.2 °F /  6.8 °C 42.1 °F /  5.6 °C 29.4in /  997.0hPa West 2.9mph /  4.7km/h 3mph /  4.8km/h 92% 0in /  0.0mm 0 W/m2
04:28 44.2 °F /  6.8 °C 42.1 °F /  5.6 °C 29.5in /  997.3hPa Calm   5mph /  8km/h 92% 0in /  0.0mm 0 W/m2
04:33 44.1 °F /  6.7 °C 41.5 °F /  5.3 °C 29.5in /  997.3hPa Calm   7mph /  11.3km/h 91% 0in /  0.0mm 0 W/m2
04:38 44.1 °F /  6.7 °C 41.5 °F /  5.3 °C 29.5in /  997.3hPa Calm   2mph /  3.2km/h 91% 0in /  0.0mm 0 W/m2
04:43 43.9 °F /  6.6 °C 41.4 °F /  5.2 °C 29.5in /  997.3hPa NW 2.9mph /  4.7km/h 5mph /  8km/h 91% 0in /  0.0mm 0 W/m2
04:49 43.9 °F /  6.6 °C 41.4 °F /  5.2 °C 29.5in /  997.6hPa NNW 0.9mph /  1.4km/h 3mph /  4.8km/h 91% 0in /  0.0mm 0 W/m2
04:54 43.9 °F /  6.6 °C 41.4 °F /  5.2 °C 29.5in /  997.6hPa West 4mph /  6.4km/h 6mph /  9.7km/h 91% 0in /  0.0mm 0 W/m2
04:59 43.9 °F /  6.6 °C 41.4 °F /  5.2 °C 29.5in /  997.6hPa Calm   3mph /  4.8km/h 91% 0in /  0.0mm 0 W/m2
05:04 43.9 °F /  6.6 °C 41.4 °F /  5.2 °C 29.5in /  997.6hPa Calm   2mph /  3.2km/h 91% 0in /  0.0mm 0 W/m2
05:09 43.7 °F /  6.5 °C 41 °F /  5 °C 29.5in /  997.6hPa NW 4mph /  6.4km/h 6mph /  9.7km/h 90% 0in /  0.0mm 0 W/m2
05:14 43.5 °F /  6.4 °C 40.8 °F /  4.9 °C 29.5in /  997.6hPa Calm   1mph /  1.6km/h 90% 0in /  0.0mm 0 W/m2
05:19 43.5 °F /  6.4 °C 40.8 °F /  4.9 °C 29.5in /  997.6hPa WNW 2.9mph /  4.7km/h 3mph /  4.8km/h 90% 0in /  0.0mm 0 W/m2
05:24 43.5 °F /  6.4 °C 40.8 °F /  4.9 °C 29.5in /  997.6hPa West 4mph /  6.4km/h 4mph /  6.4km/h 90% 0in /  0.0mm 0 W/m2
05:29 43.7 °F /  6.5 °C 40.6 °F /  4.8 °C 29.5in /  997.6hPa WNW 0.9mph /  1.4km/h 6mph /  9.7km/h 89% 0in /  0.0mm 0 W/m2
05:34 43.7 °F /  6.5 °C 40.6 °F /  4.8 °C 29.5in /  997.6hPa West 2mph /  3.2km/h 5mph /  8km/h 89% 0in /  0.0mm 0 W/m2
05:39 43.5 °F /  6.4 °C 40.5 °F /  4.7 °C 29.5in /  997.6hPa WNW 4mph /  6.4km/h 6mph /  9.7km/h 89% 0in /  0.0mm 0 W/m2
05:44 43.5 °F /  6.4 °C 40.5 °F /  4.7 °C 29.5in /  998.0hPa NW 2mph /  3.2km/h 3mph /  4.8km/h 89% 0in /  0.0mm 0 W/m2
05:49 43.5 °F /  6.4 °C 40.5 °F /  4.7 °C 29.5in /  997.6hPa NW 2.9mph /  4.7km/h 4mph /  6.4km/h 89% 0in /  0.0mm 0 W/m2
05:54 43.5 °F /  6.4 °C 40.3 °F /  4.6 °C 29.5in /  997.6hPa NNW 2.9mph /  4.7km/h 6mph /  9.7km/h 88% 0in /  0.0mm 0 W/m2
05:59 43.3 °F /  6.3 °C 40.1 °F /  4.5 °C 29.5in /  997.6hPa NNW 4.9mph /  7.9km/h 8mph /  12.9km/h 88% 0in /  0.0mm 0 W/m2
06:04 43.3 °F /  6.3 °C 40.1 °F /  4.5 °C 29.5in /  997.6hPa Calm   4mph /  6.4km/h 88% 0in /  0.0mm 0 W/m2
06:09 43.3 °F /  6.3 °C 40.1 °F /  4.5 °C 29.5in /  997.6hPa WNW 2.9mph /  4.7km/h 7mph /  11.3km/h 88% 0in /  0.0mm 0 W/m2
06:14 43.3 °F /  6.3 °C 40.1 °F /  4.5 °C 29.5in /  997.6hPa NW 4mph /  6.4km/h 4mph /  6.4km/h 88% 0in /  0.0mm 0 W/m2
06:19 43.2 °F /  6.2 °C 39.9 °F /  4.4 °C 29.5in /  997.3hPa NW 0.9mph /  1.4km/h 4mph /  6.4km/h 88% 0in /  0.0mm 0 W/m2
06:24 43.2 °F /  6.2 °C 39.9 °F /  4.4 °C 29.5in /  997.3hPa WSW 2mph /  3.2km/h 3mph /  4.8km/h 88% 0in /  0.0mm 0 W/m2
06:29 43 °F /  6.1 °C 39.7 °F /  4.3 °C 29.5in /  997.6hPa Calm   6mph /  9.7km/h 88% 0in /  0.0mm 0 W/m2
06:34 43 °F /  6.1 °C 39.7 °F /  4.3 °C 29.5in /  997.6hPa Calm   2mph /  3.2km/h 88% 0in /  0.0mm 0 W/m2
06:39 42.8 °F /  6 °C 39.7 °F /  4.3 °C 29.5in /  997.6hPa WNW 0.9mph /  1.4km/h 6mph /  9.7km/h 89% 0in /  0.0mm 0 W/m2
06:44 42.6 °F /  5.9 °C 39.6 °F /  4.2 °C 29.5in /  997.3hPa NW 0.9mph /  1.4km/h 4mph /  6.4km/h 89% 0in /  0.0mm 0 W/m2
06:49 42.6 °F /  5.9 °C 39.6 °F /  4.2 °C 29.5in /  997.6hPa WNW 6.9mph /  11.1km/h 7mph /  11.3km/h 89% 0in /  0.0mm 0 W/m2
06:54 42.6 °F /  5.9 °C 39.6 °F /  4.2 °C 29.5in /  997.6hPa NW 4mph /  6.4km/h 5mph /  8km/h 89% 0in /  0.0mm 0 W/m2
06:59 42.6 °F /  5.9 °C 39.6 °F /  4.2 °C 29.5in /  997.6hPa NW 2mph /  3.2km/h 6mph /  9.7km/h 89% 0in /  0.0mm 0 W/m2
07:04 42.6 °F /  5.9 °C 39.4 °F /  4.1 °C 29.5in /  997.6hPa Calm   1mph /  1.6km/h 88% 0in /  0.0mm 0 W/m2
07:09 42.4 °F /  5.8 °C 39.2 °F /  4 °C 29.5in /  997.6hPa NW 0.9mph /  1.4km/h 2mph /  3.2km/h 88% 0in /  0.0mm 0 W/m2
07:14 42.4 °F /  5.8 °C 39.2 °F /  4 °C 29.5in /  998.0hPa Calm   9mph /  14.5km/h 88% 0in /  0.0mm 0 W/m2
07:19 42.4 °F /  5.8 °C 39.2 °F /  4 °C 29.5in /  997.6hPa Calm   4mph /  6.4km/h 88% 0in /  0.0mm 0 W/m2
07:24 42.4 °F /  5.8 °C 39.2 °F /  4 °C 29.5in /  997.6hPa West 4mph /  6.4km/h 9mph /  14.5km/h 88% 0in /  0.0mm 0 W/m2
07:29 42.4 °F /  5.8 °C 38.8 °F /  3.8 °C 29.5in /  998.0hPa WSW 0.9mph /  1.4km/h 3mph /  4.8km/h 87% 0in /  0.0mm 0 W/m2
07:34 42.3 °F /  5.7 °C 38.7 °F /  3.7 °C 29.5in /  998.0hPa NW 0.9mph /  1.4km/h 4mph /  6.4km/h 87% 0in /  0.0mm 0 W/m2
07:39 42.3 °F /  5.7 °C 38.7 °F /  3.7 °C 29.5in /  997.6hPa West 0.9mph /  1.4km/h 3mph /  4.8km/h 87% 0in /  0.0mm 0 W/m2
07:44 42.3 °F /  5.7 °C 38.7 °F /  3.7 °C 29.5in /  997.6hPa Calm   1mph /  1.6km/h 87% 0in /  0.0mm 0 W/m2
07:49 42.1 °F /  5.6 °C 38.5 °F /  3.6 °C 29.5in /  998.0hPa Calm   3mph /  4.8km/h 87% 0in /  0.0mm 0 W/m2
07:54 41.7 °F /  5.4 °C 38.1 °F /  3.4 °C 29.5in /  998.0hPa WNW 0.9mph /  1.4km/h 1mph /  1.6km/h 87% 0in /  0.0mm 0 W/m2
07:59 41.5 °F /  5.3 °C 38.3 °F /  3.5 °C 29.5in /  998.3hPa Calm     88% 0in /  0.0mm 0 W/m2
08:04 41.4 °F /  5.2 °C 38.1 °F /  3.4 °C 29.5in /  998.0hPa Calm   1mph /  1.6km/h 88% 0in /  0.0mm 0 W/m2
08:09 41 °F /  5 °C 37.9 °F /  3.3 °C 29.5in /  998.0hPa East 2.9mph /  4.7km/h 4mph /  6.4km/h 89% 0in /  0.0mm 0 W/m2
08:14 40.8 °F /  4.9 °C 37.8 °F /  3.2 °C 29.5in /  998.0hPa East 2mph /  3.2km/h 3mph /  4.8km/h 89% 0in /  0.0mm 0 W/m2
08:19 41 °F /  5 °C 37.9 °F /  3.3 °C 29.5in /  998.0hPa Calm   4mph /  6.4km/h 89% 0in /  0.0mm 0 W/m2
08:24 40.8 °F /  4.9 °C 37.8 °F /  3.2 °C 29.5in /  998.0hPa Calm     89% 0in /  0.0mm 0 W/m2
08:29 40.6 °F /  4.8 °C 37.6 °F /  3.1 °C 29.5in /  998.0hPa Calm     89% 0in /  0.0mm 0 W/m2
08:34 40.5 °F /  4.7 °C 37.8 °F /  3.2 °C 29.5in /  998.0hPa Calm   1mph /  1.6km/h 90% 0in /  0.0mm 0 W/m2
08:39 40.5 °F /  4.7 °C 37.8 °F /  3.2 °C 29.5in /  998.3hPa Calm     90% 0in /  0.0mm 7 W/m2
08:44 40.3 °F /  4.6 °C 37.9 °F /  3.3 °C 29.5in /  998.0hPa Calm     91% 0in /  0.0mm 7 W/m2
08:49 40.1 °F /  4.5 °C 37.8 °F /  3.2 °C 29.5in /  998.3hPa Calm     91% 0in /  0.0mm 11 W/m2
08:54 39.9 °F /  4.4 °C 37.6 °F /  3.1 °C 29.5in /  998.3hPa Calm   1mph /  1.6km/h 91% 0in /  0.0mm 12 W/m2
08:59 39.9 °F /  4.4 °C 37.8 °F /  3.2 °C 29.5in /  998.3hPa West 2mph /  3.2km/h 2mph /  3.2km/h 92% 0in /  0.0mm 16 W/m2
09:04 40.3 °F /  4.6 °C 37.9 °F /  3.3 °C 29.5in /  998.0hPa Calm     91% 0in /  0.0mm 19 W/m2
09:09 40.3 °F /  4.6 °C 37.9 °F /  3.3 °C 29.5in /  998.0hPa WNW 2mph /  3.2km/h 2mph /  3.2km/h 91% 0in /  0.0mm 19 W/m2
09:14 40.3 °F /  4.6 °C 37.9 °F /  3.3 °C 29.5in /  998.3hPa Calm   1mph /  1.6km/h 91% 0in /  0.0mm 23 W/m2
09:19 40.5 °F /  4.7 °C 38.1 °F /  3.4 °C 29.5in /  998.3hPa Calm     91% 0in /  0.0mm 25 W/m2
09:24 40.5 °F /  4.7 °C 38.1 °F /  3.4 °C 29.5in /  998.6hPa NE 0.9mph /  1.4km/h 3mph /  4.8km/h 91% 0in /  0.0mm 26 W/m2
09:29 40.5 °F /  4.7 °C 37.8 °F /  3.2 °C 29.5in /  998.3hPa ESE 0.9mph /  1.4km/h 2mph /  3.2km/h 90% 0in /  0.0mm 28 W/m2
09:34 40.5 °F /  4.7 °C 38.1 °F /  3.4 °C 29.5in /  998.3hPa Calm   2mph /  3.2km/h 91% 0in /  0.0mm 35 W/m2
09:39 40.6 °F /  4.8 °C 37.9 °F /  3.3 °C 29.5in /  998.6hPa Calm   2mph /  3.2km/h 90% 0in /  0.0mm 39 W/m2
09:44 40.6 °F /  4.8 °C 37.9 °F /  3.3 °C 29.5in /  998.3hPa ENE 2.9mph /  4.7km/h 3mph /  4.8km/h 90% 0in /  0.0mm 42 W/m2
09:49 40.8 °F /  4.9 °C 38.1 °F /  3.4 °C 29.5in /  998.3hPa Calm   2mph /  3.2km/h 90% 0in /  0.0mm 44 W/m2
09:54 41 °F /  5 °C 38.3 °F /  3.5 °C 29.5in /  998.3hPa Calm   2mph /  3.2km/h 90% 0in /  0.0mm 47 W/m2
09:59 41.2 °F /  5.1 °C 38.1 °F /  3.4 °C 29.5in /  998.3hPa ESE 0.9mph /  1.4km/h 2mph /  3.2km/h 89% 0in /  0.0mm 47 W/m2
Juneau County Weather
Compliments of Weather Underground - 2 mb